Time;durP1;ratioP1;P1;durP2;ratioP2;P2;SDS_P1;SDS_P2;PMS_P1;PMS_P2;Temp;Humidity;BMP_temperature;BMP_pressure;BME280_temperature;BME280_humidity;BME280_pressure;Samples;Min_cycle;Max_cycle;Signal;HPM_P1;HPM_P2
2022/11/03 00:01:43;;;;;;;4.28;1.50;;;;;;;;;;5093500;28;20052;-52
2022/11/03 00:04:10;;;;;;;1.50;0.70;;;;;;;;;;5081818;28;20055;-51
2022/11/03 00:06:39;;;;;;;3.30;0.75;;;;;;;;;;5087896;28;20047;-52
2022/11/03 00:09:12;;;;;;;2.60;1.10;;;;;;;;;;5094245;28;20043;-51
2022/11/03 00:11:41;;;;;;;5.88;0.88;;;;;;;;;;5093769;28;20051;-54
2022/11/03 00:14:08;;;;;;;3.97;0.63;;;;;;;;;;5093710;28;20090;-50
2022/11/03 00:16:36;;;;;;;4.28;0.80;;;;;;;;;;5093267;28;20051;-52
2022/11/03 00:19:05;;;;;;;5.80;1.10;;;;;;;;;;5093597;28;20051;-50
2022/11/03 00:21:34;;;;;;;4.25;0.70;;;;;;;;;;5093166;28;20055;-51
2022/11/03 00:24:02;;;;;;;2.08;0.70;;;;;;;;;;5081954;28;20057;-52
2022/11/03 00:26:33;;;;;;;3.05;0.70;;;;;;;;;;5091898;28;20083;-53
2022/11/03 00:29:01;;;;;;;2.65;0.85;;;;;;;;;;5093400;28;20048;-54
2022/11/03 00:31:32;;;;;;;7.57;1.05;;;;;;;;;;5092678;28;20051;-51
2022/11/03 00:34:00;;;;;;;3.42;1.00;;;;;;;;;;5093253;28;20052;-55
2022/11/03 00:36:29;;;;;;;2.78;0.70;;;;;;;;;;5093308;28;20044;-50
2022/11/03 00:38:57;;;;;;;3.40;0.75;;;;;;;;;;5092901;28;20082;-54
2022/11/03 00:41:25;;;;;;;3.55;0.85;;;;;;;;;;5093016;28;20044;-51
2022/11/03 00:43:54;;;;;;;2.40;0.57;;;;;;;;;;5093030;28;20067;-50
2022/11/03 00:46:21;;;;;;;3.58;0.70;;;;;;;;;;5093029;28;20060;-51
2022/11/03 00:48:50;;;;;;;2.53;0.70;;;;;;;;;;5092696;28;20384;-51
2022/11/03 00:51:19;;;;;;;2.70;0.70;;;;;;;;;;5093168;28;20055;-52
2022/11/03 00:53:47;;;;;;;4.30;0.68;;;;;;;;;;5092708;28;20056;-52
2022/11/03 00:56:16;;;;;;;3.38;0.80;;;;;;;;;;5093127;28;20105;-53
2022/11/03 00:58:44;;;;;;;3.28;0.80;;;;;;;;;;5092524;28;20048;-50
2022/11/03 01:01:16;;;;;;;2.17;0.52;;;;;;;;;;5093252;28;20052;-52
2022/11/03 01:06:48;;;;;;;3.63;0.60;;;;;;;;;;5092777;28;20476;-51
2022/11/03 01:09:18;;;;;;;2.80;0.75;;;;;;;;;;5092868;28;20047;-50
2022/11/03 01:11:54;;;;;;;2.17;0.60;;;;;;;;;;5092524;28;20040;-51
2022/11/03 01:14:21;;;;;;;;;;;;;;;;;;5093587;28;20058;-52
2022/11/03 01:16:53;;;;;;;3.45;0.80;;;;;;;;;;5092845;28;19924;-52
2022/11/03 01:19:24;;;;;;;2.35;0.95;;;;;;;;;;5090138;28;20055;-51
2022/11/03 01:21:50;;;;;;;2.50;0.40;;;;;;;;;;5092231;28;20064;-54
2022/11/03 01:24:18;;;;;;;2.25;0.77;;;;;;;;;;5088643;28;20051;-51
2022/11/03 01:26:45;;;;;;;4.78;1.30;;;;;;;;;;5090392;28;20056;-54
2022/11/03 01:29:15;;;;;;;1.60;0.70;;;;;;;;;;5092325;28;20441;-53
2022/11/03 01:31:42;;;;;;;3.75;0.88;;;;;;;;;;5076707;28;20104;-50
2022/11/03 01:34:25;;;;;;;4.78;0.77;;;;;;;;;;5086570;28;20048;-51
2022/11/03 01:36:55;;;;;;;3.42;0.80;;;;;;;;;;5092413;28;20056;-50
2022/11/03 01:39:23;;;;;;;2.35;0.77;;;;;;;;;;5092741;28;20109;-53
2022/11/03 01:41:51;;;;;;;3.30;0.93;;;;;;;;;;5092197;28;20044;-53
2022/11/03 01:44:31;;;;;;;3.70;1.10;;;;;;;;;;5092476;28;20048;-52
2022/11/03 01:47:06;;;;;;;3.28;1.30;;;;;;;;;;5094824;28;20066;-50
2022/11/03 01:49:41;;;;;;;3.95;0.82;;;;;;;;;;5086837;28;20134;-50
2022/11/03 01:52:11;;;;;;;4.20;0.93;;;;;;;;;;5095708;28;20650;-50
2022/11/03 01:54:47;;;;;;;3.83;1.10;;;;;;;;;;5093676;28;20047;-52
2022/11/03 01:57:16;;;;;;;3.78;0.80;;;;;;;;;;5096620;28;20048;-51
2022/11/03 01:59:44;;;;;;;2.58;1.20;;;;;;;;;;5093742;28;20412;-53
2022/11/03 02:02:14;;;;;;;2.00;1.10;;;;;;;;;;5095929;28;20036;-53
2022/11/03 02:04:45;;;;;;;2.90;0.90;;;;;;;;;;5095639;28;20127;-54
2022/11/03 02:07:15;;;;;;;4.25;1.58;;;;;;;;;;5096450;28;20052;-50
2022/11/03 02:09:44;;;;;;;4.72;1.17;;;;;;;;;;5095453;28;20350;-52
2022/11/03 02:12:14;;;;;;;7.22;1.30;;;;;;;;;;5086452;28;20131;-54
2022/11/03 02:14:46;;;;;;;7.70;1.20;;;;;;;;;;5095055;28;20062;-53
2022/11/03 02:17:13;;;;;;;4.00;1.27;;;;;;;;;;5095704;28;20532;-52
2022/11/03 02:19:47;;;;;;;5.10;1.00;;;;;;;;;;5095451;28;20054;-52
2022/11/03 02:22:27;;;;;;;6.57;1.30;;;;;;;;;;5095918;28;20059;-51
2022/11/03 02:24:59;;;;;;;9.00;1.65;;;;;;;;;;5093617;28;20049;-52
2022/11/03 02:27:32;;;;;;;4.10;0.80;;;;;;;;;;5095765;28;20051;-54
2022/11/03 02:30:00;;;;;;;2.75;0.90;;;;;;;;;;5095515;28;20051;-54
2022/11/03 02:32:29;;;;;;;2.88;0.80;;;;;;;;;;5081699;28;20048;-54
2022/11/03 02:35:02;;;;;;;4.95;0.95;;;;;;;;;;5095442;28;20063;-52
2022/11/03 02:37:32;;;;;;;4.22;0.95;;;;;;;;;;5095398;28;20052;-51
2022/11/03 02:40:04;;;;;;;5.30;1.08;;;;;;;;;;5095081;28;20048;-50
2022/11/03 02:42:46;;;;;;;4.07;1.15;;;;;;;;;;5095106;28;20051;-53
2022/11/03 02:45:21;;;;;;;4.65;0.90;;;;;;;;;;5094433;28;20055;-51
2022/11/03 02:47:49;;;;;;;2.72;0.90;;;;;;;;;;5094745;28;20056;-52
2022/11/03 02:50:18;;;;;;;5.43;1.15;;;;;;;;;;5094566;28;20048;-53
2022/11/03 02:52:47;;;;;;;5.53;1.52;;;;;;;;;;5094959;28;20048;-55
2022/11/03 02:55:18;;;;;;;4.47;1.35;;;;;;;;;;5095302;28;20120;-51
2022/11/03 02:57:52;;;;;;;3.88;1.10;;;;;;;;;;5093771;28;20451;-54
2022/11/03 03:00:18;;;;;;;7.07;1.15;;;;;;;;;;5089745;28;20063;-51
2022/11/03 03:02:50;;;;;;;6.25;1.23;;;;;;;;;;5094353;28;20451;-53
2022/11/03 03:05:21;;;;;;;2.55;0.80;;;;;;;;;;5094643;28;20480;-53
2022/11/03 03:07:53;;;;;;;4.93;1.20;;;;;;;;;;5094816;28;20138;-53
2022/11/03 03:10:22;;;;;;;4.50;1.10;;;;;;;;;;5094321;28;20121;-54
2022/11/03 03:13:05;;;;;;;4.90;0.88;;;;;;;;;;5094757;28;20047;-54
2022/11/03 03:15:40;;;;;;;8.10;1.17;;;;;;;;;;5094255;28;20477;-52
2022/11/03 03:18:15;;;;;;;4.70;0.88;;;;;;;;;;5094852;28;20052;-51
2022/11/03 03:20:42;;;;;;;5.82;0.90;;;;;;;;;;5081813;28;20044;-54
2022/11/03 03:23:13;;;;;;;2.33;0.90;;;;;;;;;;5094527;28;20055;-52
2022/11/03 03:25:42;;;;;;;4.10;1.17;;;;;;;;;;5094322;28;20048;-54
2022/11/03 03:28:23;;;;;;;3.67;0.90;;;;;;;;;;5094941;28;20052;-54
2022/11/03 03:30:50;;;;;;;6.20;1.25;;;;;;;;;;5094596;28;20051;-52
2022/11/03 03:33:18;;;;;;;6.30;1.13;;;;;;;;;;5093752;28;20427;-54
2022/11/03 03:35:55;;;;;;;4.65;1.10;;;;;;;;;;5094665;28;20062;-51
2022/11/03 03:38:25;;;;;;;4.38;1.10;;;;;;;;;;5094432;28;20052;-51
2022/11/03 03:40:55;;;;;;;5.57;1.42;;;;;;;;;;5092935;28;20117;-54
2022/11/03 03:43:36;;;;;;;4.07;1.10;;;;;;;;;;5093800;28;20052;-53
2022/11/03 03:46:07;;;;;;;9.13;1.50;;;;;;;;;;5093195;28;20056;-52
2022/11/03 03:48:34;;;;;;;5.75;1.02;;;;;;;;;;5082539;28;20436;-52
2022/11/03 03:51:01;;;;;;;5.97;1.10;;;;;;;;;;5091383;28;20063;-54
2022/11/03 03:53:29;;;;;;;5.43;1.40;;;;;;;;;;5093620;28;20058;-54
2022/11/03 03:55:58;;;;;;;7.82;1.95;;;;;;;;;;5093528;28;20056;-54
2022/11/03 03:58:40;;;;;;;6.63;1.33;;;;;;;;;;5093270;28;20458;-50
2022/11/03 04:01:10;;;;;;;6.10;1.58;;;;;;;;;;5081376;28;20048;-52
2022/11/03 04:03:37;;;;;;;9.15;1.30;;;;;;;;;;5092846;28;20072;-51
2022/11/03 04:06:05;;;;;;;5.45;1.48;;;;;;;;;;5092992;28;20052;-52
2022/11/03 04:08:33;;;;;;;5.82;1.27;;;;;;;;;;5092488;28;20346;-52
2022/11/03 04:22:17;;;;;;;3.97;1.25;;;;;;;;;;5093061;28;20128;-54
2022/11/03 04:24:45;;;;;;;4.80;1.30;;;;;;;;;;5093102;28;20070;-51
2022/11/03 04:27:22;;;;;;;3.45;1.27;;;;;;;;;;5093583;28;20051;-53
2022/11/03 04:30:00;;;;;;;7.75;1.60;;;;;;;;;;5092495;28;20469;-51
2022/11/03 04:32:31;;;;;;;4.50;1.17;;;;;;;;;;5092967;28;20087;-51
2022/11/03 04:34:59;;;;;;;7.07;1.48;;;;;;;;;;5090837;28;20063;-51
2022/11/03 04:37:27;;;;;;;10.45;1.40;;;;;;;;;;5093066;28;20055;-51
2022/11/03 04:39:57;;;;;;;3.55;1.38;;;;;;;;;;5092900;28;20052;-52
2022/11/03 04:42:27;;;;;;;4.43;1.00;;;;;;;;;;5092674;28;20044;-53
2022/11/03 04:45:00;;;;;;;4.53;1.35;;;;;;;;;;5092182;28;20059;-52
2022/11/03 04:47:37;;;;;;;3.05;0.80;;;;;;;;;;5092594;28;20058;-51
2022/11/03 04:50:06;;;;;;;2.17;0.85;;;;;;;;;;5092915;28;20046;-51
2022/11/03 04:52:36;;;;;;;5.40;1.10;;;;;;;;;;5092385;28;20048;-55
2022/11/03 04:55:06;;;;;;;3.95;0.90;;;;;;;;;;5092398;28;20536;-54
2022/11/03 04:57:33;;;;;;;4.35;1.30;;;;;;;;;;5092282;28;20456;-53
2022/11/03 05:00:07;;;;;;;5.47;1.25;;;;;;;;;;5092792;28;20403;-55
2022/11/03 05:02:33;;;;;;;5.53;1.23;;;;;;;;;;5091876;28;20087;-53
2022/11/03 05:05:07;;;;;;;4.97;1.13;;;;;;;;;;5092666;28;20059;-52
2022/11/03 05:07:36;;;;;;;8.57;1.30;;;;;;;;;;5091823;28;20052;-51
2022/11/03 05:10:06;;;;;;;3.05;1.30;;;;;;;;;;5092163;28;20635;-51
2022/11/03 05:12:34;;;;;;;4.78;1.05;;;;;;;;;;5091710;28;20056;-53
2022/11/03 05:15:15;;;;;;;4.20;0.77;;;;;;;;;;5093031;28;20123;-53
2022/11/03 05:17:43;;;;;;;3.50;0.95;;;;;;;;;;5093268;28;20083;-52
2022/11/03 05:20:24;;;;;;;6.38;1.33;;;;;;;;;;5094083;28;20055;-52
2022/11/03 05:22:54;;;;;;;3.28;1.25;;;;;;;;;;5096930;28;20043;-51
2022/11/03 05:25:30;;;;;;;4.82;1.30;;;;;;;;;;5096966;28;20048;-52
2022/11/03 05:27:59;;;;;;;5.30;1.00;;;;;;;;;;5096687;28;20058;-52
2022/11/03 05:30:42;;;;;;;5.35;1.25;;;;;;;;;;5083833;28;20056;-51
2022/11/03 05:33:18;;;;;;;5.60;1.10;;;;;;;;;;5096340;28;20097;-51
2022/11/03 05:35:44;;;;;;;7.15;1.45;;;;;;;;;;5096403;28;20069;-53
2022/11/03 05:38:14;;;;;;;3.47;1.38;;;;;;;;;;5096237;28;20472;-51
2022/11/03 05:40:42;;;;;;;4.82;0.93;;;;;;;;;;5095323;28;20059;-50
2022/11/03 05:43:11;;;;;;;3.10;1.08;;;;;;;;;;5095792;28;20047;-51
2022/11/03 05:45:44;;;;;;;2.65;1.15;;;;;;;;;;5096041;28;20079;-54
2022/11/03 05:48:14;;;;;;;5.28;1.23;;;;;;;;;;5083967;28;20058;-54
2022/11/03 05:50:42;;;;;;;4.53;1.45;;;;;;;;;;5095636;28;20063;-54
2022/11/03 05:53:14;;;;;;;7.10;1.13;;;;;;;;;;5096645;28;20051;-55
2022/11/03 05:55:42;;;;;;;3.78;1.25;;;;;;;;;;5096212;28;20441;-54
2022/11/03 05:58:15;;;;;;;10.77;3.60;;;;;;;;;;5096390;28;20059;-52
2022/11/03 06:00:45;;;;;;;7.05;2.53;;;;;;;;;;5095712;28;20459;-51
2022/11/03 06:03:15;;;;;;;3.85;1.60;;;;;;;;;;5096226;28;20055;-51
2022/11/03 06:05:41;;;;;;;6.40;1.90;;;;;;;;;;5096185;28;20052;-53
2022/11/03 06:08:16;;;;;;;9.73;3.05;;;;;;;;;;5096138;28;20055;-51
2022/11/03 06:10:53;;;;;;;8.18;2.60;;;;;;;;;;5094991;28;20459;-51
2022/11/03 06:13:24;;;;;;;8.05;2.28;;;;;;;;;;5085332;28;20056;-54
2022/11/03 06:15:56;;;;;;;5.00;1.67;;;;;;;;;;5093637;28;20372;-51
2022/11/03 06:18:28;;;;;;;5.30;1.70;;;;;;;;;;5095423;28;20048;-51
2022/11/03 06:20:57;;;;;;;8.55;1.30;;;;;;;;;;5092948;28;20052;-52
2022/11/03 06:23:24;;;;;;;3.58;1.30;;;;;;;;;;5095339;28;20040;-54
2022/11/03 06:25:53;;;;;;;3.05;1.00;;;;;;;;;;5095119;28;20063;-52
2022/11/03 06:28:22;;;;;;;7.13;1.20;;;;;;;;;;5094752;28;20056;-54
2022/11/03 06:30:50;;;;;;;8.35;2.25;;;;;;;;;;5085645;28;20059;-54
2022/11/03 06:33:23;;;;;;;9.07;1.33;;;;;;;;;;5084578;28;20048;-53
2022/11/03 06:35:53;;;;;;;5.93;1.10;;;;;;;;;;5094200;28;20063;-53
2022/11/03 06:38:22;;;;;;;4.30;1.02;;;;;;;;;;5094789;28;20457;-51
2022/11/03 06:41:00;;;;;;;3.28;0.90;;;;;;;;;;5095075;28;20096;-51
2022/11/03 06:43:34;;;;;;;4.97;1.13;;;;;;;;;;5092782;28;20075;-51
2022/11/03 06:46:02;;;;;;;4.65;1.23;;;;;;;;;;5095152;28;20066;-50
2022/11/03 06:48:34;;;;;;;10.20;1.27;;;;;;;;;;5095561;28;20059;-53
2022/11/03 06:51:01;;;;;;;9.25;2.08;;;;;;;;;;5092798;28;20437;-54
2022/11/03 06:53:32;;;;;;;16.25;1.60;;;;;;;;;;5095483;28;20048;-55
2022/11/03 06:56:00;;;;;;;2.45;1.05;;;;;;;;;;5094977;28;20044;-51
2022/11/03 06:58:30;;;;;;;5.72;1.70;;;;;;;;;;5092058;28;20461;-53
2022/11/03 07:00:57;;;;;;;4.65;1.48;;;;;;;;;;5095046;28;20052;-52
2022/11/03 07:03:36;;;;;;;6.07;1.42;;;;;;;;;;5095295;28;20048;-52
2022/11/03 07:06:17;;;;;;;4.28;1.23;;;;;;;;;;5094960;28;20055;-53
2022/11/03 07:08:46;;;;;;;3.92;1.30;;;;;;;;;;5094714;28;20051;-53
2022/11/03 07:11:16;;;;;;;8.23;1.80;;;;;;;;;;5086126;28;20080;-53
2022/11/03 07:13:44;;;;;;;3.15;1.50;;;;;;;;;;5083654;28;20048;-53
2022/11/03 07:16:13;;;;;;;8.98;1.70;;;;;;;;;;5092628;28;20051;-53
2022/11/03 07:18:41;;;;;;;7.72;1.75;;;;;;;;;;5092753;28;20105;-50
2022/11/03 07:21:20;;;;;;;5.28;1.70;;;;;;;;;;5084266;28;20075;-55
2022/11/03 07:23:47;;;;;;;5.65;1.80;;;;;;;;;;5089264;28;20048;-49
2022/11/03 07:26:14;;;;;;;7.53;2.10;;;;;;;;;;5094332;28;20044;-48
2022/11/03 07:28:42;;;;;;;5.47;1.52;;;;;;;;;;5093271;28;20354;-52
2022/11/03 07:31:12;;;;;;;8.55;2.30;;;;;;;;;;5093643;28;20565;-52
2022/11/03 07:33:40;;;;;;;9.85;3.80;;;;;;;;;;5092024;28;20387;-52
2022/11/03 07:36:10;;;;;;;11.73;2.60;;;;;;;;;;5092991;28;20472;-53
2022/11/03 07:38:39;;;;;;;2.90;1.50;;;;;;;;;;5093155;28;20060;-55
2022/11/03 07:41:11;;;;;;;5.85;2.00;;;;;;;;;;5093659;28;20063;-53
2022/11/03 07:43:41;;;;;;;6.50;1.98;;;;;;;;;;5092814;28;20051;-51
2022/11/03 07:46:14;;;;;;;5.63;1.77;;;;;;;;;;5088282;28;20056;-53
2022/11/03 07:48:45;;;;;;;7.80;1.58;;;;;;;;;;5093413;28;20052;-51
2022/11/03 07:51:17;;;;;;;3.85;2.05;;;;;;;;;;5076590;28;20481;-50
2022/11/03 07:53:47;;;;;;;9.10;2.28;;;;;;;;;;5086210;28;20039;-55
2022/11/03 07:56:18;;;;;;;5.28;2.30;;;;;;;;;;5093026;28;20044;-55
2022/11/03 07:58:45;;;;;;;6.43;2.00;;;;;;;;;;5092113;28;20044;-52
2022/11/03 08:01:24;;;;;;;4.72;2.15;;;;;;;;;;5093184;28;20051;-56
2022/11/03 08:03:59;;;;;;;7.10;2.33;;;;;;;;;;5087181;28;20051;-55
2022/11/03 08:06:26;;;;;;;5.95;1.90;;;;;;;;;;5088260;28;20067;-54
2022/11/03 08:09:09;;;;;;;7.45;1.83;;;;;;;;;;5092409;28;20056;-55
2022/11/03 08:11:35;;;;;;;6.53;1.60;;;;;;;;;;5092285;28;20048;-55
2022/11/03 08:14:03;;;;;;;9.68;2.53;;;;;;;;;;5082478;28;20465;-50
2022/11/03 08:16:33;;;;;;;6.90;1.80;;;;;;;;;;5091729;28;20468;-51
2022/11/03 08:19:03;;;;;;;12.70;2.00;;;;;;;;;;5092388;28;20107;-50
2022/11/03 08:21:30;;;;;;;6.07;1.80;;;;;;;;;;5090830;28;20044;-51
2022/11/03 08:24:00;;;;;;;6.68;1.80;;;;;;;;;;5091459;28;20063;-51
2022/11/03 08:26:30;;;;;;;6.22;1.90;;;;;;;;;;5087707;28;20059;-51
2022/11/03 08:28:59;;;;;;;6.85;1.98;;;;;;;;;;5091382;28;20048;-53
2022/11/03 08:31:26;;;;;;;4.25;1.40;;;;;;;;;;5090919;28;20075;-52
2022/11/03 08:33:54;;;;;;;5.95;1.58;;;;;;;;;;5086991;28;20044;-53
2022/11/03 08:36:22;;;;;;;2.78;1.17;;;;;;;;;;5088348;28;20055;-53
2022/11/03 08:38:49;;;;;;;5.05;1.30;;;;;;;;;;5092325;28;20052;-55
2022/11/03 08:41:20;;;;;;;4.40;1.73;;;;;;;;;;5091247;28;20055;-54
2022/11/03 08:43:48;;;;;;;3.97;1.10;;;;;;;;;;5088628;28;20063;-52
2022/11/03 08:46:14;;;;;;;12.20;2.17;;;;;;;;;;5086159;28;20079;-53
2022/11/03 08:48:44;;;;;;;7.25;1.75;;;;;;;;;;5082482;28;20055;-50
2022/11/03 08:51:20;;;;;;;6.10;1.83;;;;;;;;;;5091202;28;20048;-56
2022/11/03 08:53:49;;;;;;;5.60;1.30;;;;;;;;;;5089982;28;20346;-52
2022/11/03 08:56:16;;;;;;;6.88;1.23;;;;;;;;;;5087340;28;20087;-55
2022/11/03 08:58:49;;;;;;;2.83;0.80;;;;;;;;;;5091435;28;20063;-54
2022/11/03 09:01:17;;;;;;;3.75;1.23;;;;;;;;;;5083492;28;20128;-51
2022/11/03 09:03:45;;;;;;;2.00;0.98;;;;;;;;;;5093848;28;20052;-52
2022/11/03 09:06:12;;;;;;;4.75;1.27;;;;;;;;;;5093081;28;20062;-52
2022/11/03 09:08:40;;;;;;;5.45;1.35;;;;;;;;;;5095989;28;20063;-55
2022/11/03 09:11:06;;;;;;;3.83;1.05;;;;;;;;;;5094530;28;20387;-51
2022/11/03 09:13:35;;;;;;;7.28;1.20;;;;;;;;;;5093105;28;20048;-51
2022/11/03 09:16:14;;;;;;;4.55;1.10;;;;;;;;;;5095376;28;20133;-51
2022/11/03 09:18:42;;;;;;;13.88;1.80;;;;;;;;;;5087509;28;20057;-52
2022/11/03 09:21:10;;;;;;;6.10;1.50;;;;;;;;;;5093067;28;20464;-52
2022/11/03 09:23:38;;;;;;;8.65;1.00;;;;;;;;;;5095757;28;20060;-51
2022/11/03 09:26:05;;;;;;;5.95;1.17;;;;;;;;;;5093868;28;20044;-52
2022/11/03 09:28:34;;;;;;;4.47;0.80;;;;;;;;;;5095272;28;20395;-51
2022/11/03 09:31:04;;;;;;;10.55;1.75;;;;;;;;;;5095548;28;20142;-51
2022/11/03 09:33:44;;;;;;;5.00;1.25;;;;;;;;;;5095044;28;20056;-50
2022/11/03 09:36:14;;;;;;;8.45;1.25;;;;;;;;;;5095349;28;20103;-56
2022/11/03 09:38:44;;;;;;;5.25;1.13;;;;;;;;;;5094728;28;20048;-52
2022/11/03 09:41:16;;;;;;;9.55;1.55;;;;;;;;;;5095649;28;20052;-50
2022/11/03 09:43:49;;;;;;;3.85;0.88;;;;;;;;;;5083979;28;20051;-53
2022/11/03 09:46:17;;;;;;;8.90;1.17;;;;;;;;;;5087851;28;20052;-51
2022/11/03 09:48:46;;;;;;;6.80;1.20;;;;;;;;;;5094027;28;20052;-54
2022/11/03 09:51:24;;;;;;;5.38;0.90;;;;;;;;;;5093867;28;20066;-54
2022/11/03 09:53:52;;;;;;;3.80;1.58;;;;;;;;;;5087068;28;20051;-55
2022/11/03 09:56:22;;;;;;;3.58;0.63;;;;;;;;;;5093905;28;20060;-55
2022/11/03 09:58:49;;;;;;;4.97;0.88;;;;;;;;;;5095104;28;20048;-52
2022/11/03 10:01:18;;;;;;;3.75;0.90;;;;;;;;;;5091481;28;20052;-54
2022/11/03 10:04:02;;;;;;;9.85;1.58;;;;;;;;;;5094928;28;20055;-55
2022/11/03 10:06:32;;;;;;;4.05;0.90;;;;;;;;;;5084975;28;20051;-54
2022/11/03 10:09:01;;;;;;;7.78;1.55;;;;;;;;;;5095230;28;20087;-50
2022/11/03 10:11:30;;;;;;;11.95;1.25;;;;;;;;;;5093224;28;20076;-55
2022/11/03 10:13:58;;;;;;;2.85;0.80;;;;;;;;;;5094773;28;20048;-56
2022/11/03 10:16:28;;;;;;;8.15;1.35;;;;;;;;;;5094254;28;20517;-56
2022/11/03 10:19:01;;;;;;;12.63;1.10;;;;;;;;;;5094792;28;20131;-52
2022/11/03 10:21:32;;;;;;;4.75;1.00;;;;;;;;;;5092201;28;20052;-53
2022/11/03 10:24:00;;;;;;;5.43;1.10;;;;;;;;;;5092892;28;20469;-52
2022/11/03 10:26:34;;;;;;;5.03;1.33;;;;;;;;;;5094291;28;20141;-54
2022/11/03 10:29:03;;;;;;;6.78;1.20;;;;;;;;;;5094869;28;20055;-52
2022/11/03 10:31:36;;;;;;;10.90;1.15;;;;;;;;;;5093997;28;20055;-56
2022/11/03 10:34:24;;;;;;;7.85;1.33;;;;;;;;;;5094953;28;20332;-55
2022/11/03 10:37:11;;;;;;;6.15;1.40;;;;;;;;;;5087726;28;20044;-53
2022/11/03 10:39:38;;;;;;;4.85;1.08;;;;;;;;;;5094329;28;20052;-53
2022/11/03 10:42:15;;;;;;;3.35;1.00;;;;;;;;;;5090634;28;20048;-55
2022/11/03 10:44:43;;;;;;;6.70;1.17;;;;;;;;;;5093222;28;20044;-53
2022/11/03 10:47:22;;;;;;;6.45;1.40;;;;;;;;;;5091735;28;20067;-50
2022/11/03 10:49:57;;;;;;;5.47;1.73;;;;;;;;;;5081126;28;20047;-54
2022/11/03 10:52:24;;;;;;;5.13;1.10;;;;;;;;;;5096032;28;20047;-56
2022/11/03 10:54:55;;;;;;;7.75;1.50;;;;;;;;;;5093938;28;20044;-57
2022/11/03 10:57:22;;;;;;;7.88;1.55;;;;;;;;;;5093955;28;20129;-54
2022/11/03 10:59:51;;;;;;;7.20;1.38;;;;;;;;;;5092360;28;20048;-54
2022/11/03 11:02:21;;;;;;;8.07;1.20;;;;;;;;;;5084990;28;20044;-56
2022/11/03 11:04:55;;;;;;;6.70;1.30;;;;;;;;;;5093344;28;20453;-57
2022/11/03 11:07:31;;;;;;;4.22;0.88;;;;;;;;;;5092311;28;20051;-56
2022/11/03 11:10:05;;;;;;;3.35;1.00;;;;;;;;;;5092383;28;20044;-55
2022/11/03 11:12:33;;;;;;;6.20;1.20;;;;;;;;;;5088496;28;20048;-56
2022/11/03 11:15:05;;;;;;;3.08;1.17;;;;;;;;;;5088607;28;20117;-52
2022/11/03 11:17:43;;;;;;;5.75;1.27;;;;;;;;;;5083404;28;20075;-52
2022/11/03 11:20:30;;;;;;;4.20;0.77;;;;;;;;;;5089984;28;20044;-51
2022/11/03 11:23:18;;;;;;;5.45;1.00;;;;;;;;;;5093643;28;20048;-53
2022/11/03 11:26:04;;;;;;;5.43;1.30;;;;;;;;;;5084093;28;20060;-51
2022/11/03 11:28:31;;;;;;;5.40;1.38;;;;;;;;;;5090440;28;20384;-54
2022/11/03 11:31:33;;;;;;;6.72;1.10;;;;;;;;;;5093655;28;20052;-56
2022/11/03 11:34:19;;;;;;;7.63;1.42;;;;;;;;;;5051045;28;20143;-57
2022/11/03 11:40:11;;;;;;;6.20;1.13;;;;;;;;;;5040128;28;20053;-55
2022/11/03 11:43:09;;;;;;;4.78;1.20;;;;;;;;;;5051951;28;20063;-56
2022/11/03 11:45:56;;;;;;;7.43;1.33;;;;;;;;;;5073454;28;20565;-53
2022/11/03 11:48:24;;;;;;;8.98;1.77;;;;;;;;;;5081015;28;20052;-51
2022/11/03 11:50:51;;;;;;;5.70;1.40;;;;;;;;;;5082929;28;20051;-51
2022/11/03 11:53:33;;;;;;;6.57;1.58;;;;;;;;;;5092087;28;20047;-52
2022/11/03 11:56:02;;;;;;;5.60;2.13;;;;;;;;;;5091340;28;20138;-55
2022/11/03 11:58:35;;;;;;;3.88;1.35;;;;;;;;;;5092599;28;20062;-53
2022/11/03 12:01:05;;;;;;;4.47;1.25;;;;;;;;;;5088198;28;20047;-53
2022/11/03 12:03:38;;;;;;;9.25;1.65;;;;;;;;;;5091724;28;20059;-55
2022/11/03 12:06:09;;;;;;;6.40;2.13;;;;;;;;;;5092811;28;20036;-52
2022/11/03 12:08:38;;;;;;;5.75;1.67;;;;;;;;;;5092561;28;20059;-56
2022/11/03 12:11:06;;;;;;;5.50;1.50;;;;;;;;;;5092726;28;20040;-57
2022/11/03 12:13:50;;;;;;;5.72;1.65;;;;;;;;;;5092280;28;20062;-52
2022/11/03 12:16:30;;;;;;;4.32;1.30;;;;;;;;;;5090427;28;20145;-51
2022/11/03 12:19:21;;;;;;;5.32;1.60;;;;;;;;;;5091235;28;20058;-53
2022/11/03 12:21:50;;;;;;;8.45;2.40;;;;;;;;;;5086162;28;20109;-52
2022/11/03 12:24:36;;;;;;;4.57;1.85;;;;;;;;;;5092543;28;20052;-55
2022/11/03 12:27:18;;;;;;;4.93;1.70;;;;;;;;;;5092259;28;20060;-57
2022/11/03 12:29:47;;;;;;;6.75;2.17;;;;;;;;;;5085425;28;20054;-53
2022/11/03 12:32:15;;;;;;;7.72;2.58;;;;;;;;;;5092185;28;20342;-56
2022/11/03 12:34:44;;;;;;;6.72;1.83;;;;;;;;;;5092209;28;20056;-55
2022/11/03 12:37:16;;;;;;;6.82;1.50;;;;;;;;;;5092391;28;20044;-51
2022/11/03 12:39:45;;;;;;;4.63;1.77;;;;;;;;;;5092293;28;20063;-50
2022/11/03 12:42:26;;;;;;;6.80;1.83;;;;;;;;;;5090755;28;20055;-51
2022/11/03 12:44:55;;;;;;;6.82;2.00;;;;;;;;;;5083707;28;20053;-52
2022/11/03 12:47:22;;;;;;;5.93;2.00;;;;;;;;;;5091336;28;20549;-52
2022/11/03 12:49:48;;;;;;;5.82;1.50;;;;;;;;;;5092220;28;20044;-54
2022/11/03 12:52:17;;;;;;;36.15;5.68;;;;;;;;;;5091630;28;20048;-55
2022/11/03 12:54:44;;;;;;;8.25;2.05;;;;;;;;;;5092188;28;20052;-53
2022/11/03 12:57:17;;;;;;;6.88;1.70;;;;;;;;;;5089344;28;20048;-51
2022/11/03 12:59:45;;;;;;;3.80;1.67;;;;;;;;;;5078417;28;20059;-48
2022/11/03 13:02:12;;;;;;;6.60;1.63;;;;;;;;;;5087470;28;20052;-50
2022/11/03 13:04:41;;;;;;;5.90;1.48;;;;;;;;;;5089821;28;20051;-52
2022/11/03 13:07:07;;;;;;;6.47;1.90;;;;;;;;;;5091078;28;20134;-52
2022/11/03 13:09:35;;;;;;;4.13;1.00;;;;;;;;;;5089166;28;20365;-50
2022/11/03 13:15:02;;;;;;;5.57;1.88;;;;;;;;;;5084436;28;20065;-51
2022/11/03 13:17:29;;;;;;;5.45;1.60;;;;;;;;;;5088125;28;20101;-50
2022/11/03 13:19:56;;;;;;;5.57;1.40;;;;;;;;;;5092527;28;20376;-51
2022/11/03 13:22:26;;;;;;;6.60;1.55;;;;;;;;;;5092417;28;20060;-49
2022/11/03 13:24:54;;;;;;;6.65;1.75;;;;;;;;;;5091982;28;20052;-51
2022/11/03 13:27:21;;;;;;;5.05;1.52;;;;;;;;;;5085583;28;20056;-50
2022/11/03 13:29:58;;;;;;;7.50;1.70;;;;;;;;;;5090838;28;20842;-50
2022/11/03 13:32:25;;;;;;;4.32;1.58;;;;;;;;;;5092134;28;20051;-50
2022/11/03 13:34:52;;;;;;;6.55;1.63;;;;;;;;;;5091818;28;20063;-54
2022/11/03 13:37:20;;;;;;;5.78;1.40;;;;;;;;;;5092128;28;20052;-55
2022/11/03 13:39:49;;;;;;;5.30;1.27;;;;;;;;;;5091466;28;20051;-51
2022/11/03 13:42:17;;;;;;;6.68;2.00;;;;;;;;;;5093341;28;20139;-51
2022/11/03 13:44:45;;;;;;;5.53;1.88;;;;;;;;;;5095672;28;20052;-52
2022/11/03 13:47:15;;;;;;;3.55;1.60;;;;;;;;;;5094640;28;20052;-49
2022/11/03 13:49:43;;;;;;;3.70;1.35;;;;;;;;;;5091984;28;20052;-50
2022/11/03 13:52:11;;;;;;;5.28;1.40;;;;;;;;;;5091794;28;20044;-52
2022/11/03 13:54:41;;;;;;;5.50;1.73;;;;;;;;;;5094551;28;20452;-54
2022/11/03 13:57:08;;;;;;;5.20;1.70;;;;;;;;;;5095633;28;20109;-53
2022/11/03 13:59:38;;;;;;;6.32;1.65;;;;;;;;;;5093166;28;20051;-51
2022/11/03 14:02:06;;;;;;;7.13;1.25;;;;;;;;;;5096508;28;20079;-51
2022/11/03 14:04:39;;;;;;;8.52;2.10;;;;;;;;;;5092966;28;20365;-53
2022/11/03 14:07:07;;;;;;;6.80;2.00;;;;;;;;;;5091042;28;20048;-53
2022/11/03 14:09:37;;;;;;;6.75;2.40;;;;;;;;;;5092589;28;20043;-48
2022/11/03 14:14:49;;;;;;;2.63;1.05;;;;;;;;;;5090538;28;20193;-52
2022/11/03 14:17:17;;;;;;;3.40;1.00;;;;;;;;;;5093833;28;20067;-47
2022/11/03 14:19:47;;;;;;;5.60;1.25;;;;;;;;;;5089867;28;20060;-49
2022/11/03 14:22:13;;;;;;;5.68;1.45;;;;;;;;;;5092932;28;20067;-49
2022/11/03 14:24:43;;;;;;;4.10;1.33;;;;;;;;;;5093043;28;20060;-51
2022/11/03 14:27:14;;;;;;;5.38;1.13;;;;;;;;;;5094569;28;20062;-50
2022/11/03 14:29:48;;;;;;;8.73;1.77;;;;;;;;;;5083524;28;20098;-50
2022/11/03 14:32:16;;;;;;;7.07;2.22;;;;;;;;;;5094719;28;20634;-52
2022/11/03 14:34:49;;;;;;;9.90;2.60;;;;;;;;;;5094146;28;20051;-51
2022/11/03 14:37:17;;;;;;;9.90;1.95;;;;;;;;;;5094802;28;20044;-52
2022/11/03 14:39:47;;;;;;;5.78;1.77;;;;;;;;;;5093239;28;20059;-53
2022/11/03 14:42:14;;;;;;;8.55;2.20;;;;;;;;;;5094738;28;20063;-50
2022/11/03 14:44:44;;;;;;;9.75;2.78;;;;;;;;;;5094323;28;20044;-52
2022/11/03 14:47:13;;;;;;;7.65;2.15;;;;;;;;;;5093278;28;20484;-55
2022/11/03 14:49:40;;;;;;;10.82;3.08;;;;;;;;;;5092314;28;20063;-55
2022/11/03 14:52:10;;;;;;;5.43;1.90;;;;;;;;;;5087451;28;20106;-53
2022/11/03 14:54:37;;;;;;;7.25;2.72;;;;;;;;;;5092271;28;20067;-56
2022/11/03 14:57:05;;;;;;;9.32;3.35;;;;;;;;;;5094044;28;20047;-53
2022/11/03 14:59:33;;;;;;;8.98;3.40;;;;;;;;;;5094035;28;20062;-55
2022/11/03 15:02:01;;;;;;;9.98;3.58;;;;;;;;;;5093004;28;20482;-55
2022/11/03 15:04:28;;;;;;;10.52;4.20;;;;;;;;;;5093262;28;20062;-53
2022/11/03 15:06:56;;;;;;;10.38;4.47;;;;;;;;;;5083784;28;20076;-51
2022/11/03 15:09:34;;;;;;;6.45;3.20;;;;;;;;;;5092153;28;20044;-54
2022/11/03 15:12:02;;;;;;;10.52;3.67;;;;;;;;;;5082827;28;20052;-50
2022/11/03 15:14:30;;;;;;;7.30;3.10;;;;;;;;;;5091991;28;20048;-56
2022/11/03 15:16:57;;;;;;;8.02;3.50;;;;;;;;;;5092659;28;20093;-55
2022/11/03 15:19:24;;;;;;;7.70;3.20;;;;;;;;;;5094025;28;20060;-50
2022/11/03 15:21:54;;;;;;;13.35;4.10;;;;;;;;;;5088876;28;20396;-51
2022/11/03 15:24:24;;;;;;;9.32;3.53;;;;;;;;;;5086518;28;20174;-51
2022/11/03 15:26:54;;;;;;;8.85;3.53;;;;;;;;;;5082450;28;20415;-54
2022/11/03 15:29:23;;;;;;;8.98;3.47;;;;;;;;;;5093644;28;20058;-50